ADDS METAR Data INFO
IDs: Format: Raw Decoded Include TAF

Data at: 1412 UTC 12 Dec 2017

METAR for:KLAL (Lakeland Rgnl, FL, US)
Text:KLAL 121350Z 20004KT 10SM SCT043 11/10 A3007
Temperature: 11.0°C ( 52°F)
Dewpoint: 10.0°C ( 50°F) [RH = 94%]
Pressure (altimeter):30.07 inches Hg (1018.4 mb)
Winds:from the SSW (200 degrees) at 5 MPH (4 knots; 2.1 m/s)
Visibility:10 or more sm (16+ km)
Ceiling:at least 12,000 feet AGL
Clouds: scattered clouds at 4300 feet AGL